createdAt,value
2023-02-08T00:00:26.996Z,1020.7
2023-02-08T00:01:43.191Z,1020.7
2023-02-08T00:02:59.385Z,1020.8
2023-02-08T00:04:15.580Z,1020.8
2023-02-08T00:05:31.774Z,1020.8
2023-02-08T00:06:47.968Z,1020.8
2023-02-08T00:08:04.163Z,1020.8
2023-02-08T00:09:20.357Z,1020.7
2023-02-08T00:10:36.551Z,1020.8
2023-02-08T00:11:52.745Z,1020.7
2023-02-08T00:13:09.192Z,1020.7
2023-02-08T00:14:25.383Z,1020.8
2023-02-08T00:15:41.329Z,1020.8
2023-02-08T00:16:56.540Z,1020.7
2023-02-08T00:18:12.734Z,1020.7
2023-02-08T00:19:28.928Z,1020.7
2023-02-08T00:20:45.122Z,1020.7
2023-02-08T00:22:01.316Z,1020.7
2023-02-08T00:23:17.511Z,1020.7
2023-02-08T00:24:33.705Z,1020.7
2023-02-08T00:25:48.925Z,1020.6
2023-02-08T00:27:04.137Z,1020.6
2023-02-08T00:28:20.331Z,1020.6
2023-02-08T00:29:36.525Z,1020.6
2023-02-08T00:30:52.720Z,1020.5
2023-02-08T00:32:08.914Z,1020.6
2023-02-08T00:33:25.108Z,1020.6
2023-02-08T00:34:41.302Z,1020.5
2023-02-08T00:35:53.000Z,1020.5
2023-02-08T00:37:13.938Z,1020.5
2023-02-08T00:38:25.000Z,1020.5
2023-02-08T00:39:46.079Z,1020.5
2023-02-08T00:41:02.274Z,1020.5
2023-02-08T00:42:18.468Z,1020.4
2023-02-08T00:43:33.678Z,1020.4
2023-02-08T00:44:50.116Z,1020.6
2023-02-08T00:46:06.311Z,1020.5
2023-02-08T00:47:22.261Z,1020.5
2023-02-08T00:48:38.702Z,1020.5
2023-02-08T00:49:54.651Z,1020.5
2023-02-08T00:51:06.000Z,1020.5
2023-02-08T00:52:21.000Z,1020.5
2023-02-08T00:53:41.277Z,1020.4
2023-02-08T00:54:57.471Z,1020.5
2023-02-08T00:56:12.941Z,1020.5
2023-02-08T00:57:27.903Z,1020.5
2023-02-08T00:58:44.096Z,1020.6
2023-02-08T01:00:00.290Z,1020.5
2023-02-08T01:01:16.485Z,1020.5
2023-02-08T01:02:32.679Z,1020.5
2023-02-08T01:03:49.133Z,1020.5
2023-02-08T01:05:00.000Z,1020.5
2023-02-08T01:06:21.263Z,1020.5
2023-02-08T01:07:37.457Z,1020.5
2023-02-08T01:08:53.651Z,1020.5
2023-02-08T01:10:09.846Z,1020.5
2023-02-08T01:11:26.040Z,1020.5
2023-02-08T01:12:42.234Z,1020.5
2023-02-08T01:13:57.444Z,1020.5
2023-02-08T01:15:13.640Z,1020.5
2023-02-08T01:16:30.088Z,1020.5
2023-02-08T01:17:46.028Z,1020.4
2023-02-08T01:18:58.000Z,1020.5
2023-02-08T01:20:18.417Z,1020.5
2023-02-08T01:21:34.611Z,1020.5
2023-02-08T01:22:49.832Z,1020.5
2023-02-08T01:24:05.043Z,1020.5
2023-02-08T01:25:20.264Z,1020.5
2023-02-08T01:26:31.000Z,1020.5
2023-02-08T01:27:51.669Z,1020.5
2023-02-08T01:29:08.113Z,1020.5
2023-02-08T01:30:24.058Z,1020.4
2023-02-08T01:31:40.252Z,1020.5
2023-02-08T01:32:52.000Z,1020.5
2023-02-08T01:34:12.641Z,1020.5
2023-02-08T01:35:19.000Z,1020.4
2023-02-08T01:35:28.835Z,1020.4
2023-02-08T01:36:45.029Z,1020.4
2023-02-08T01:37:57.000Z,1020.5
2023-02-08T01:39:17.666Z,1020.5
2023-02-08T01:41:45.000Z,1020.4
2023-02-08T01:43:05.017Z,1020.5
2023-02-08T01:44:17.000Z,1020.4
2023-02-08T01:45:37.405Z,1020.4
2023-02-08T01:46:53.599Z,1020.4
2023-02-08T01:48:09.794Z,1020.3
2023-02-08T01:49:25.988Z,1020.4
2023-02-08T01:50:42.182Z,1020.3
2023-02-08T01:51:53.000Z,1020.3
2023-02-08T01:53:12.614Z,1020.3
2023-02-08T01:54:23.000Z,1020.3
2023-02-08T01:55:43.300Z,1020.3
2023-02-08T01:56:59.239Z,1020.3
2023-02-08T01:58:15.434Z,1020.2
2023-02-08T01:59:31.629Z,1020.3
2023-02-08T02:00:47.823Z,1020.3
2023-02-08T02:01:59.000Z,1020.3
2023-02-08T02:03:20.212Z,1020.3
2023-02-08T02:04:32.000Z,1020.3
2023-02-08T02:05:52.600Z,1020.2
2023-02-08T02:07:09.067Z,1020.2
2023-02-08T02:08:24.990Z,1020.3
2023-02-08T02:09:41.184Z,1020.2
2023-02-08T02:10:57.378Z,1020.2
2023-02-08T02:12:12.588Z,1020.2
2023-02-08T02:13:28.784Z,1020.2
2023-02-08T02:14:44.978Z,1020.2
2023-02-08T02:16:01.172Z,1020.2
2023-02-08T02:17:17.367Z,1020.2
2023-02-08T02:18:33.808Z,1020.2
2023-02-08T02:19:50.001Z,1020.2
2023-02-08T02:21:05.949Z,1020.2
2023-02-08T02:22:22.144Z,1020.2
2023-02-08T02:23:38.338Z,1020.1
2023-02-08T02:24:54.532Z,1020.1
2023-02-08T02:26:10.726Z,1020.2
2023-02-08T02:27:27.170Z,1020.2
2023-02-08T02:28:42.389Z,1020.2
2023-02-08T02:29:58.570Z,1020.2
2023-02-08T02:31:14.521Z,1020.2
2023-02-08T02:32:26.000Z,1020.2
2023-02-08T02:33:46.909Z,1020.2
2023-02-08T02:35:03.104Z,1020.1
2023-02-08T02:36:19.298Z,1020.2
2023-02-08T02:37:35.492Z,1020.2
2023-02-08T02:38:51.686Z,1020.1
2023-02-08T02:40:02.000Z,1020.1
2023-02-08T02:41:22.118Z,1020.2
2023-02-08T02:42:38.312Z,1020.2
2023-02-08T02:43:54.507Z,1020.2
2023-02-08T02:45:05.000Z,1020.2
2023-02-08T02:46:24.938Z,1020.2
2023-02-08T02:47:41.132Z,1020.1
2023-02-08T02:48:57.326Z,1020.1
2023-02-08T02:50:13.520Z,1020.1
2023-02-08T02:51:29.715Z,1020.2
2023-02-08T02:52:45.909Z,1020.1
2023-02-08T02:54:02.103Z,1020.2
2023-02-08T02:55:18.298Z,1020.1
2023-02-08T02:56:34.739Z,1020.1
2023-02-08T02:57:46.000Z,1020.2
2023-02-08T02:59:06.881Z,1020.2
2023-02-08T03:00:23.076Z,1020.2
2023-02-08T03:01:39.270Z,1020.2
2023-02-08T03:02:54.480Z,1020.1
2023-02-08T03:04:10.676Z,1020.2
2023-02-08T03:05:27.117Z,1020.2
2023-02-08T03:06:43.064Z,1020.2
2023-02-08T03:07:59.258Z,1020.2
2023-02-08T03:09:15.453Z,1020.1
2023-02-08T03:10:31.892Z,1020.2
2023-02-08T03:11:47.110Z,1020.2
2023-02-08T03:13:02.079Z,1020.2
2023-02-08T03:14:17.300Z,1020.2
2023-02-08T03:15:28.000Z,1020.1
2023-02-08T03:16:48.959Z,1020.1
2023-02-08T03:18:00.000Z,1020.1
2023-02-08T03:19:21.095Z,1020.1
2023-02-08T03:20:33.000Z,1020.2
2023-02-08T03:21:53.483Z,1020.2
2023-02-08T03:23:05.000Z,1020.2
2023-02-08T03:24:25.872Z,1020.2
2023-02-08T03:25:42.066Z,1020.2
2023-02-08T03:26:57.534Z,1020.2
2023-02-08T03:28:13.477Z,1020.2
2023-02-08T03:29:29.671Z,1020.3
2023-02-08T03:30:45.865Z,1020.3
2023-02-08T03:32:02.060Z,1020.3
2023-02-08T03:33:14.000Z,1020.2
2023-02-08T03:34:30.000Z,1020.2
2023-02-08T03:35:46.000Z,1020.3
2023-02-08T03:37:06.838Z,1020.3
2023-02-08T03:38:23.032Z,1020.2
2023-02-08T03:39:35.000Z,1020.3
2023-02-08T03:40:50.000Z,1020.3
2023-02-08T03:42:09.658Z,1020.3
2023-02-08T03:43:20.000Z,1020.3
2023-02-08T03:44:40.090Z,1020.3
2023-02-08T03:45:52.000Z,1020.4
2023-02-08T03:47:12.734Z,1020.4
2023-02-08T03:48:24.000Z,1020.4
2023-02-08T03:49:44.867Z,1020.3
2023-02-08T03:50:56.000Z,1020.3
2023-02-08T03:52:17.256Z,1020.3
2023-02-08T03:53:33.450Z,1020.3
2023-02-08T03:54:45.000Z,1020.3
2023-02-08T03:56:01.000Z,1020.4
2023-02-08T03:57:22.033Z,1020.3
2023-02-08T03:58:34.000Z,1020.3
2023-02-08T03:59:54.423Z,1020.3
2023-02-08T04:01:05.000Z,1020.3
2023-02-08T04:02:26.074Z,1020.3
2023-02-08T04:03:37.000Z,1020.3
2023-02-08T04:04:58.216Z,1020.3
2023-02-08T04:06:10.000Z,1020.3
2023-02-08T04:07:30.604Z,1020.3
2023-02-08T04:08:47.044Z,1020.2
2023-02-08T04:09:57.000Z,1020.2
2023-02-08T04:11:17.230Z,1020.3
2023-02-08T04:12:33.425Z,1020.2
2023-02-08T04:13:45.000Z,1020.2
2023-02-08T04:15:05.813Z,1020.2
2023-02-08T04:16:22.248Z,1020.1
2023-02-08T04:17:34.000Z,1020.1
2023-02-08T04:18:54.396Z,1020.1
2023-02-08T04:20:09.618Z,1020
2023-02-08T04:21:15.000Z,1020.1
2023-02-08T04:21:20.000Z,1020.1
2023-02-08T04:22:41.023Z,1020
2023-02-08T04:23:57.217Z,1020.1
2023-02-08T04:25:13.411Z,1020.1
2023-02-08T04:27:41.000Z,1020.1
2023-02-08T04:29:37.244Z,1020.1
2023-02-08T04:30:18.432Z,1020
2023-02-08T04:31:34.383Z,1020.1
2023-02-08T04:32:46.000Z,1020
2023-02-08T04:34:02.000Z,1020.1
2023-02-08T04:35:23.255Z,1020.1
2023-02-08T04:36:35.000Z,1020.1
2023-02-08T04:37:50.000Z,1020.1
2023-02-08T04:39:06.000Z,1020
2023-02-08T04:40:22.000Z,1020
2023-02-08T04:41:38.000Z,1020
2023-02-08T04:42:59.147Z,1020.1
2023-02-08T04:44:15.342Z,1020
2023-02-08T04:45:31.536Z,1020
2023-02-08T04:46:35.000Z,1020.1
2023-02-08T04:46:42.000Z,1020.1
2023-02-08T04:48:02.311Z,1020.1
2023-02-08T04:49:18.161Z,1020.1
2023-02-08T04:50:34.610Z,1020.1
2023-02-08T04:53:04.788Z,1020.1
2023-02-08T04:54:20.982Z,1020
2023-02-08T04:55:37.424Z,1020.1
2023-02-08T04:56:53.370Z,1020.1
2023-02-08T04:58:09.564Z,1020.1
2023-02-08T04:59:21.000Z,1020.1
2023-02-08T05:00:41.953Z,1020
2023-02-08T05:01:58.148Z,1020.1
2023-02-08T05:03:10.000Z,1020.1
2023-02-08T05:04:26.000Z,1020.1
2023-02-08T05:05:46.731Z,1020.1
2023-02-08T05:07:02.926Z,1020.1
2023-02-08T05:08:19.120Z,1020.1
2023-02-08T05:09:30.000Z,1020.1
2023-02-08T05:10:46.000Z,1020.1
2023-02-08T05:12:06.986Z,1020.1
2023-02-08T05:13:18.000Z,1020.1
2023-02-08T05:14:39.349Z,1020.2
2023-02-08T05:15:55.554Z,1020.2
2023-02-08T05:17:07.000Z,1020.2
2023-02-08T05:18:26.717Z,1020.2
2023-02-08T05:19:37.000Z,1020.1
2023-02-08T05:20:53.000Z,1020.1
2023-02-08T05:22:12.360Z,1020.1
2023-02-08T05:23:28.554Z,1020.2
2023-02-08T05:24:44.991Z,1020.2
2023-02-08T05:26:00.943Z,1020.1
2023-02-08T05:27:17.378Z,1020.1
2023-02-08T05:28:33.579Z,1020.1
2023-02-08T05:29:45.000Z,1020.1
2023-02-08T05:31:05.720Z,1020.1
2023-02-08T05:32:21.914Z,1020.1
2023-02-08T05:33:38.108Z,1020.1
2023-02-08T05:34:54.303Z,1020.1
2023-02-08T05:36:06.000Z,1020.1
2023-02-08T05:37:26.692Z,1020.1
2023-02-08T05:38:41.903Z,1020.2
2023-02-08T05:39:58.096Z,1020.2
2023-02-08T05:41:10.000Z,1020.1
2023-02-08T05:42:26.000Z,1020.2
2023-02-08T05:43:46.680Z,1020.2
2023-02-08T05:45:02.875Z,1020.2
2023-02-08T05:46:19.069Z,1020.2
2023-02-08T05:47:34.289Z,1020.2
2023-02-08T05:48:45.000Z,1020.2
2023-02-08T05:50:01.000Z,1020.2
2023-02-08T05:51:17.000Z,1020.2
2023-02-08T05:52:33.000Z,1020.1
2023-02-08T05:53:48.000Z,1020.1
2023-02-08T05:55:04.000Z,1020.1
2023-02-08T05:56:20.000Z,1020.1
2023-02-08T05:57:40.903Z,1020.1
2023-02-08T05:58:57.346Z,1020.2
2023-02-08T06:00:13.292Z,1020.2
2023-02-08T06:01:25.000Z,1020.2
2023-02-08T06:02:41.000Z,1020.2
2023-02-08T06:04:02.135Z,1020.3
2023-02-08T06:05:14.000Z,1020.2
2023-02-08T06:06:34.266Z,1020.2
2023-02-08T06:07:46.000Z,1020.2
2023-02-08T06:09:06.656Z,1020.2
2023-02-08T06:10:17.000Z,1020.2
2023-02-08T06:11:38.064Z,1020.2
2023-02-08T06:12:54.259Z,1020.1
2023-02-08T06:14:10.455Z,1020.2
2023-02-08T06:15:26.650Z,1020.1
2023-02-08T06:16:38.000Z,1020.1
2023-02-08T06:17:59.041Z,1020.2
2023-02-08T06:19:10.000Z,1020.2
2023-02-08T06:20:30.705Z,1020.1
2023-02-08T06:21:45.918Z,1020.1
2023-02-08T06:23:01.867Z,1020.1
2023-02-08T06:24:17.090Z,1020.1
2023-02-08T06:25:32.302Z,1020.1
2023-02-08T06:26:44.000Z,1020.2
2023-02-08T06:28:04.933Z,1020.2
2023-02-08T06:29:20.888Z,1020.2
2023-02-08T06:30:33.000Z,1020.2
2023-02-08T06:31:53.280Z,1020.2
2023-02-08T06:33:05.000Z,1020.2
2023-02-08T06:34:21.000Z,1020.3
2023-02-08T06:35:32.000Z,1020.2
2023-02-08T06:35:41.869Z,1020.2
2023-02-08T06:36:58.065Z,1020.3
2023-02-08T06:38:14.261Z,1020.2
2023-02-08T06:39:30.458Z,1020.3
2023-02-08T06:42:02.115Z,1020.2
2023-02-08T06:43:14.000Z,1020.2
2023-02-08T06:44:34.258Z,1020.2
2023-02-08T06:45:46.000Z,1020.2
2023-02-08T06:47:02.000Z,1020.3
2023-02-08T06:49:18.380Z,1020.3
2023-02-08T06:49:34.000Z,1020.2
2023-02-08T06:50:54.266Z,1020.2
2023-02-08T06:52:09.720Z,1020.3
2023-02-08T06:53:21.000Z,1020.2
2023-02-08T06:54:41.870Z,1020.2
2023-02-08T06:56:27.584Z,1020.3
2023-02-08T06:57:12.553Z,1020.2
2023-02-08T06:58:28.745Z,1020.3
2023-02-08T06:59:44.697Z,1020.3
2023-02-08T07:01:00.893Z,1020.3
2023-02-08T07:02:17.090Z,1020.3
2023-02-08T07:03:33.285Z,1020.3
2023-02-08T07:04:49.482Z,1020.3
2023-02-08T07:05:56.000Z,1020.3
2023-02-08T07:06:05.678Z,1020.2
2023-02-08T07:07:21.875Z,1020.3
2023-02-08T07:08:34.000Z,1020.3
2023-02-08T07:09:54.267Z,1020.3
2023-02-08T07:12:22.000Z,1020.3
2023-02-08T07:13:41.872Z,1020.3
2023-02-08T07:14:54.000Z,1020.3
2023-02-08T07:16:14.264Z,1020.3
2023-02-08T07:17:30.709Z,1020.3
2023-02-08T07:18:46.905Z,1020.3
2023-02-08T07:19:58.000Z,1020.3
2023-02-08T07:21:19.049Z,1020.3
2023-02-08T07:22:30.000Z,1020.3
2023-02-08T07:23:49.730Z,1020.2
2023-02-08T07:25:05.681Z,1020.2
2023-02-08T07:27:14.236Z,1020.1
2023-02-08T07:27:36.115Z,1020.2
2023-02-08T07:28:52.311Z,1020.2
2023-02-08T07:30:08.754Z,1020.1
2023-02-08T07:31:24.949Z,1020.1
2023-02-08T07:32:40.900Z,1020.1
2023-02-08T07:33:57.096Z,1020.1
2023-02-08T07:35:13.293Z,1020
2023-02-08T07:36:25.000Z,1020
2023-02-08T07:37:45.685Z,1020
2023-02-08T07:39:36.143Z,1020
2023-02-08T07:40:18.078Z,1020
2023-02-08T07:41:33.295Z,1019.9
2023-02-08T07:42:49.733Z,1019.9
2023-02-08T07:44:01.000Z,1020
2023-02-08T07:45:22.130Z,1019.9
2023-02-08T07:46:38.080Z,1019.9
2023-02-08T07:47:50.000Z,1019.9
2023-02-08T07:49:10.720Z,1019.9
2023-02-08T07:50:22.000Z,1019.9
2023-02-08T07:51:42.865Z,1019.8
2023-02-08T07:52:54.000Z,1019.9
2023-02-08T07:54:13.300Z,1019.8
2023-02-08T07:55:28.523Z,1019.9
2023-02-08T07:56:43.981Z,1019.8
2023-02-08T07:58:00.181Z,1019.8
2023-02-08T07:59:12.000Z,1019.8
2023-02-08T08:00:28.000Z,1019.9
2023-02-08T08:01:48.769Z,1019.9
2023-02-08T08:03:04.966Z,1019.9
2023-02-08T08:04:20.913Z,1019.8
2023-02-08T08:05:33.000Z,1019.9
2023-02-08T08:06:53.306Z,1019.9
2023-02-08T08:08:09.502Z,1019.9
2023-02-08T08:09:25.698Z,1019.9
2023-02-08T08:10:41.895Z,1019.9
2023-02-08T08:11:54.000Z,1019.9
2023-02-08T08:13:13.303Z,1019.8
2023-02-08T08:14:29.751Z,1019.8
2023-02-08T08:15:41.000Z,1019.8
2023-02-08T08:17:01.892Z,1019.8
2023-02-08T08:18:18.341Z,1019.7
2023-02-08T08:19:34.285Z,1019.7
2023-02-08T08:20:46.000Z,1019.8
2023-02-08T08:22:05.948Z,1019.8
2023-02-08T08:23:21.187Z,1019.7
2023-02-08T08:24:36.138Z,1019.8
2023-02-08T08:25:47.000Z,1019.8
2023-02-08T08:27:03.000Z,1019.8
2023-02-08T08:28:24.152Z,1019.8
2023-02-08T08:29:40.178Z,1019.8
2023-02-08T08:30:56.135Z,1019.8
2023-02-08T08:32:12.331Z,1019.8
2023-02-08T08:33:24.000Z,1019.8
2023-02-08T08:34:35.000Z,1019.8
2023-02-08T08:34:44.724Z,1019.8
2023-02-08T08:36:01.164Z,1019.8
2023-02-08T08:37:17.116Z,1019.8
2023-02-08T08:38:29.000Z,1019.8
2023-02-08T08:41:05.706Z,1019.7
2023-02-08T08:42:16.000Z,1019.8
2023-02-08T08:43:37.114Z,1019.8
2023-02-08T08:44:53.563Z,1019.8
2023-02-08T08:46:09.759Z,1019.8
2023-02-08T08:47:14.000Z,1019.7
2023-02-08T08:47:21.000Z,1019.7
2023-02-08T08:48:37.000Z,1019.7
2023-02-08T08:49:54.000Z,1019.7
2023-02-08T08:51:09.000Z,1019.7
2023-02-08T08:53:40.000Z,1019.7
2023-02-08T08:54:59.949Z,1019.7
2023-02-08T08:56:15.412Z,1019.7
2023-02-08T08:57:31.605Z,1019.7
2023-02-08T08:58:47.795Z,1019.7
2023-02-08T08:59:59.000Z,1019.7
2023-02-08T09:01:20.212Z,1019.7
2023-02-08T09:02:32.000Z,1019.7
2023-02-08T09:03:48.000Z,1019.6
2023-02-08T09:05:04.000Z,1019.6
2023-02-08T09:06:15.000Z,1019.6
2023-02-08T09:06:24.732Z,1019.6
2023-02-08T09:07:40.928Z,1019.6
2023-02-08T09:08:53.000Z,1019.6
2023-02-08T09:10:13.320Z,1019.6
2023-02-08T09:12:35.000Z,1019.6
2023-02-08T09:12:44.728Z,1019.6
2023-02-08T09:14:00.925Z,1019.6
2023-02-08T09:15:17.121Z,1019.6
2023-02-08T09:16:29.000Z,1019.5
2023-02-08T09:19:05.710Z,1019.6
2023-02-08T09:20:17.000Z,1019.6
2023-02-08T09:21:37.130Z,1019.6
2023-02-08T09:22:48.000Z,1019.6
2023-02-08T09:24:04.000Z,1019.6
2023-02-08T09:25:13.000Z,1019.7
2023-02-08T09:25:24.734Z,1019.6
2023-02-08T09:26:35.000Z,1019.6
2023-02-08T09:27:51.000Z,1019.6
2023-02-08T09:29:11.366Z,1019.7
2023-02-08T09:31:39.000Z,1019.7
2023-02-08T09:32:59.954Z,1019.7
2023-02-08T09:34:16.393Z,1019.6
2023-02-08T09:35:32.345Z,1019.6
2023-02-08T09:36:44.000Z,1019.7
2023-02-08T09:38:04.737Z,1019.6
2023-02-08T09:39:16.000Z,1019.6
2023-02-08T09:40:33.000Z,1019.6
2023-02-08T09:41:53.326Z,1019.6
2023-02-08T09:43:05.000Z,1019.5
2023-02-08T09:44:24.985Z,1019.5
2023-02-08T09:45:40.928Z,1019.6
2023-02-08T09:46:53.000Z,1019.6
2023-02-08T09:48:13.564Z,1019.5
2023-02-08T09:49:29.516Z,1019.5
2023-02-08T09:50:36.000Z,1019.5
2023-02-08T09:50:41.000Z,1019.5
2023-02-08T09:51:52.000Z,1019.5
2023-02-08T09:52:01.908Z,1019.6
2023-02-08T09:53:18.104Z,1019.5
2023-02-08T09:54:30.000Z,1019.5
2023-02-08T09:58:17.000Z,1019.5
2023-02-08T09:59:37.394Z,1019.6
2023-02-08T10:00:52.348Z,1019.5
2023-02-08T10:02:03.000Z,1019.5
2023-02-08T10:03:19.000Z,1019.5
2023-02-08T10:04:40.225Z,1019.5
2023-02-08T10:05:52.000Z,1019.5
2023-02-08T10:07:12.594Z,1019.5
2023-02-08T10:08:24.000Z,1019.5
2023-02-08T10:09:40.000Z,1019.4
2023-02-08T10:11:00.931Z,1019.4
2023-02-08T10:13:33.573Z,1019.4
2023-02-08T10:14:49.519Z,1019.4
2023-02-08T10:15:55.000Z,1019.4
2023-02-08T10:16:05.715Z,1019.4
2023-02-08T10:17:17.000Z,1019.4
2023-02-08T10:18:33.000Z,1019.5
2023-02-08T10:19:53.319Z,1019.5
2023-02-08T10:22:25.711Z,1019.4
2023-02-08T10:23:37.000Z,1019.5
2023-02-08T10:24:54.000Z,1019.5
2023-02-08T10:26:10.000Z,1019.5
2023-02-08T10:27:26.000Z,1019.5
2023-02-08T10:28:33.000Z,1019.4
2023-02-08T10:28:45.716Z,1019.5
2023-02-08T10:30:01.185Z,1019.5
2023-02-08T10:31:16.151Z,1019.4
2023-02-08T10:32:27.000Z,1019.5
2023-02-08T10:35:03.755Z,1019.5
2023-02-08T10:36:19.951Z,1019.4
2023-02-08T10:37:36.147Z,1019.5
2023-02-08T10:38:52.342Z,1019.5
2023-02-08T10:40:08.785Z,1019.4
2023-02-08T10:41:24.734Z,1019.4
2023-02-08T10:42:40.931Z,1019.4
2023-02-08T10:43:57.126Z,1019.5
2023-02-08T10:45:13.323Z,1019.5
2023-02-08T10:46:25.000Z,1019.4
2023-02-08T10:47:45.714Z,1019.4
2023-02-08T10:49:00.926Z,1019.3
2023-02-08T10:50:17.123Z,1019.4
2023-02-08T10:51:33.318Z,1019.3
2023-02-08T10:52:45.000Z,1019.4
2023-02-08T10:54:05.710Z,1019.4
2023-02-08T10:55:21.906Z,1019.4
2023-02-08T10:56:38.102Z,1019.4
2023-02-08T10:57:49.000Z,1019.4
2023-02-08T10:59:08.537Z,1019.4
2023-02-08T11:00:24.991Z,1019.3
2023-02-08T11:01:35.000Z,1019.3
2023-02-08T11:02:55.168Z,1019.4
2023-02-08T11:04:11.364Z,1019.3
2023-02-08T11:05:23.000Z,1019.3
2023-02-08T11:06:34.000Z,1019.2
2023-02-08T11:06:43.756Z,1019.3
2023-02-08T11:07:55.000Z,1019.2
2023-02-08T11:09:12.000Z,1019.2
2023-02-08T11:10:32.345Z,1019.2
2023-02-08T11:13:04.737Z,1019.2
2023-02-08T11:14:16.000Z,1019.1
2023-02-08T11:15:37.372Z,1019.1
2023-02-08T11:16:53.324Z,1019.1
2023-02-08T11:18:09.766Z,1019.1
2023-02-08T11:19:24.976Z,1019.1
2023-02-08T11:20:40.928Z,1019.1
2023-02-08T11:21:53.000Z,1019.1
2023-02-08T11:23:13.321Z,1019.1
2023-02-08T11:24:25.000Z,1019.1
2023-02-08T11:25:41.000Z,1019.1
2023-02-08T11:26:57.000Z,1019.1
2023-02-08T11:28:17.132Z,1019.1
2023-02-08T11:29:32.343Z,1019.1
2023-02-08T11:30:47.566Z,1019.1
2023-02-08T11:32:02.778Z,1019.1
2023-02-08T11:33:18.974Z,1019.1
2023-02-08T11:34:35.170Z,1019
2023-02-08T11:35:47.000Z,1019
2023-02-08T11:37:03.000Z,1019
2023-02-08T11:38:23.758Z,1019
2023-02-08T11:39:35.000Z,1018.9
2023-02-08T11:40:56.402Z,1019
2023-02-08T11:42:12.346Z,1018.9
2023-02-08T11:43:24.000Z,1018.9
2023-02-08T11:44:44.738Z,1019
2023-02-08T11:46:01.183Z,1018.9
2023-02-08T11:47:13.000Z,1018.8
2023-02-08T11:48:28.000Z,1018.9
2023-02-08T11:49:48.539Z,1018.8
2023-02-08T11:51:04.981Z,1018.8
2023-02-08T11:52:21.181Z,1018.7
2023-02-08T11:53:37.374Z,1018.8
2023-02-08T11:54:53.322Z,1018.8
2023-02-08T11:56:04.000Z,1018.8
2023-02-08T11:57:19.000Z,1018.7
2023-02-08T11:58:27.000Z,1018.7
2023-02-08T11:58:38.975Z,1018.7
2023-02-08T11:59:50.000Z,1018.7
2023-02-08T12:01:09.409Z,1018.7
2023-02-08T12:02:21.000Z,1018.7
2023-02-08T12:04:53.000Z,1018.6
2023-02-08T12:06:14.193Z,1018.6
2023-02-08T12:07:30.388Z,1018.6
2023-02-08T12:08:46.585Z,1018.6
2023-02-08T12:10:02.780Z,1018.5
2023-02-08T12:11:19.231Z,1018.6
2023-02-08T12:12:31.000Z,1018.5
2023-02-08T12:13:47.000Z,1018.6
2023-02-08T12:15:03.000Z,1018.5
2023-02-08T12:16:23.760Z,1018.5
2023-02-08T12:17:34.000Z,1018.5
2023-02-08T12:18:55.169Z,1018.5
2023-02-08T12:20:11.364Z,1018.6
2023-02-08T12:21:17.000Z,1018.5
2023-02-08T12:21:27.560Z,1018.6
2023-02-08T12:22:43.756Z,1018.6
2023-02-08T12:23:59.953Z,1018.5
2023-02-08T12:25:16.149Z,1018.6
2023-02-08T12:27:46.833Z,1018.5
2023-02-08T12:28:58.000Z,1018.4
2023-02-08T12:30:18.003Z,1018.5
2023-02-08T12:31:33.215Z,1018.4
2023-02-08T12:32:49.411Z,1018.4
2023-02-08T12:34:05.608Z,1018.4
2023-02-08T12:35:21.803Z,1018.3
2023-02-08T12:36:28.000Z,1018.3
2023-02-08T12:36:37.999Z,1018.4
2023-02-08T12:37:54.195Z,1018.4
2023-02-08T12:39:10.391Z,1018.3
2023-02-08T12:40:22.000Z,1018.2
2023-02-08T12:42:54.000Z,1018.2
2023-02-08T12:44:15.178Z,1018.2
2023-02-08T12:45:27.000Z,1018.2
2023-02-08T12:46:43.000Z,1018.1
2023-02-08T12:47:53.000Z,1018
2023-02-08T12:48:02.782Z,1018.1
2023-02-08T12:49:18.978Z,1018.1
2023-02-08T12:50:35.174Z,1018.1
2023-02-08T12:51:51.371Z,1018
2023-02-08T12:54:24.033Z,1018
2023-02-08T12:55:40.206Z,1018
2023-02-08T12:56:56.403Z,1018.1
2023-02-08T12:57:58.000Z,1017.9
2023-02-08T12:58:07.000Z,1018
2023-02-08T12:59:22.000Z,1018
2023-02-08T13:00:31.000Z,1017.9
2023-02-08T13:00:41.812Z,1018
2023-02-08T13:01:57.276Z,1017.9
2023-02-08T13:04:25.000Z,1017.9
2023-02-08T13:05:36.000Z,1017.9
2023-02-08T13:07:01.808Z,1017.9
2023-02-08T13:08:13.000Z,1017.9
2023-02-08T13:09:34.201Z,1017.8
2023-02-08T13:12:02.000Z,1017.9
2023-02-08T13:13:22.788Z,1017.8
2023-02-08T13:14:34.000Z,1017.8
2023-02-08T13:15:51.000Z,1017.8
2023-02-08T13:17:11.376Z,1017.8
2023-02-08T13:18:27.572Z,1017.9
2023-02-08T13:19:43.035Z,1017.7
2023-02-08T13:20:54.000Z,1017.8
2023-02-08T13:22:11.000Z,1017.8
2023-02-08T13:23:27.000Z,1017.7
2023-02-08T13:24:47.827Z,1017.7
2023-02-08T13:26:03.767Z,1017.7
2023-02-08T13:27:14.000Z,1017.7
2023-02-08T13:28:30.000Z,1017.7
2023-02-08T13:29:49.425Z,1017.7
2023-02-08T13:31:04.636Z,1017.7
2023-02-08T13:32:20.833Z,1017.6
2023-02-08T13:33:32.000Z,1017.6
2023-02-08T13:34:53.477Z,1017.6
2023-02-08T13:36:09.420Z,1017.6
2023-02-08T13:37:25.618Z,1017.6
2023-02-08T13:38:41.813Z,1017.6
2023-02-08T13:39:58.266Z,1017.6
2023-02-08T13:41:14.205Z,1017.6
2023-02-08T13:42:30.401Z,1017.5
2023-02-08T13:43:46.842Z,1017.5
2023-02-08T13:45:02.794Z,1017.5
2023-02-08T13:46:14.000Z,1017.5
2023-02-08T13:47:34.204Z,1017.4
2023-02-08T13:48:50.652Z,1017.4
2023-02-08T13:50:02.000Z,1017.4
2023-02-08T13:51:18.000Z,1017.5
2023-02-08T13:52:38.988Z,1017.4
2023-02-08T13:53:55.183Z,1017.5
2023-02-08T13:55:11.635Z,1017.5
2023-02-08T13:56:15.000Z,1017.4
2023-02-08T13:56:22.000Z,1017.5
2023-02-08T13:57:42.065Z,1017.4
2023-02-08T13:58:53.000Z,1017.4
2023-02-08T14:00:14.206Z,1017.4
2023-02-08T14:02:44.641Z,1017.3
2023-02-08T14:04:00.837Z,1017.3
2023-02-08T14:05:12.000Z,1017.3
2023-02-08T14:06:29.000Z,1017.3
2023-02-08T14:07:45.000Z,1017.3
2023-02-08T14:09:05.622Z,1017.4
2023-02-08T14:10:22.076Z,1017.3
2023-02-08T14:11:33.000Z,1017.3
2023-02-08T14:12:54.210Z,1017.3
2023-02-08T14:14:10.406Z,1017.2
2023-02-08T14:15:22.000Z,1017.3
2023-02-08T14:16:42.798Z,1017.2
2023-02-08T14:17:58.994Z,1017.3
2023-02-08T14:19:10.000Z,1017.3
2023-02-08T14:20:30.402Z,1017.3
2023-02-08T14:21:42.000Z,1017.2
2023-02-08T14:23:03.065Z,1017.3
2023-02-08T14:24:14.000Z,1017.3
2023-02-08T14:25:35.186Z,1017.2
2023-02-08T14:26:51.625Z,1017.2
2023-02-08T14:28:02.000Z,1017.2
2023-02-08T14:29:21.817Z,1017.2
2023-02-08T14:30:37.039Z,1017.1
2023-02-08T14:31:52.251Z,1017.1
2023-02-08T14:33:08.447Z,1017
2023-02-08T14:34:20.000Z,1017.1
2023-02-08T14:35:36.000Z,1017.1
2023-02-08T14:36:57.035Z,1017.1
2023-02-08T14:38:13.231Z,1017
2023-02-08T14:39:29.427Z,1017
2023-02-08T14:40:45.872Z,1017.1
2023-02-08T14:42:01.821Z,1017.1
2023-02-08T14:43:18.017Z,1017
2023-02-08T14:44:30.000Z,1017.1
2023-02-08T14:45:50.409Z,1017
2023-02-08T14:47:06.604Z,1017
2023-02-08T14:48:22.070Z,1017
2023-02-08T14:49:38.258Z,1017.1
2023-02-08T14:50:50.000Z,1017
2023-02-08T14:52:10.406Z,1017
2023-02-08T14:53:26.603Z,1017
2023-02-08T14:54:43.047Z,1017
2023-02-08T14:55:58.995Z,1016.9
2023-02-08T14:57:10.000Z,1016.9
2023-02-08T14:58:29.430Z,1016.9
2023-02-08T14:59:45.875Z,1016.9
2023-02-08T15:00:57.000Z,1016.9
2023-02-08T15:02:18.019Z,1016.9
2023-02-08T15:03:34.461Z,1016.9
2023-02-08T15:04:46.000Z,1016.9
2023-02-08T15:06:02.000Z,1017
2023-02-08T15:07:22.803Z,1016.9
2023-02-08T15:08:34.000Z,1016.9
2023-02-08T15:09:55.195Z,1016.9
2023-02-08T15:11:07.000Z,1016.9
2023-02-08T15:13:39.000Z,1016.8
2023-02-08T15:14:58.996Z,1016.9
2023-02-08T15:16:15.193Z,1016.9
2023-02-08T15:17:31.388Z,1016.8
2023-02-08T15:18:47.586Z,1016.9
2023-02-08T15:20:03.781Z,1016.8
2023-02-08T15:21:15.000Z,1016.8
2023-02-08T15:22:32.000Z,1016.8
2023-02-08T15:23:48.000Z,1016.8
2023-02-08T15:25:03.000Z,1016.7
2023-02-08T15:26:22.805Z,1016.8
2023-02-08T15:27:33.000Z,1016.7
2023-02-08T15:28:49.000Z,1016.7
2023-02-08T15:30:09.702Z,1016.8
2023-02-08T15:31:24.659Z,1016.7
2023-02-08T15:32:39.870Z,1016.7
2023-02-08T15:33:56.067Z,1016.7
2023-02-08T15:35:12.263Z,1016.7
2023-02-08T15:36:28.459Z,1016.7
2023-02-08T15:37:40.000Z,1016.7
2023-02-08T15:38:56.000Z,1016.7
2023-02-08T15:40:12.000Z,1016.7
2023-02-08T15:41:33.234Z,1016.7
2023-02-08T15:42:45.000Z,1016.7
2023-02-08T15:44:01.000Z,1016.7
2023-02-08T15:45:21.817Z,1016.7
2023-02-08T15:46:33.000Z,1016.7
2023-02-08T15:47:50.000Z,1016.7
2023-02-08T15:49:09.416Z,1016.7
2023-02-08T15:50:21.000Z,1016.6
2023-02-08T15:51:41.803Z,1016.6
2023-02-08T15:52:53.000Z,1016.6
2023-02-08T15:54:14.191Z,1016.6